createdAt,value
2017-10-19T00:01:46.360Z,28.40
2017-10-19T00:04:16.082Z,37.33
2017-10-19T00:06:45.823Z,49.37
2017-10-19T00:09:14.769Z,51.20
2017-10-19T00:11:43.873Z,49.90
2017-10-19T00:14:13.588Z,53.70
2017-10-19T00:16:43.327Z,62.17
2017-10-19T00:19:12.676Z,48.43
2017-10-19T00:21:41.681Z,50.20
2017-10-19T00:24:11.423Z,59.77
2017-10-19T00:26:40.406Z,63.13
2017-10-19T00:29:09.379Z,46.33
2017-10-19T00:31:38.336Z,56.20
2017-10-19T00:34:07.289Z,54.20
2017-10-19T00:36:36.380Z,54.67
2017-10-19T00:39:05.724Z,62.97
2017-10-19T00:41:34.708Z,55.50
2017-10-19T00:44:03.815Z,55.80
2017-10-19T00:46:32.832Z,57.80
2017-10-19T00:49:01.927Z,61.53
2017-10-19T00:51:31.660Z,68.90
2017-10-19T00:54:00.656Z,55.83
2017-10-19T00:56:29.637Z,52.90
2017-10-19T00:58:58.591Z,58.93
2017-10-19T01:01:27.558Z,46.30
2017-10-19T01:03:56.521Z,72.63
2017-10-19T01:06:25.537Z,55.10
2017-10-19T01:08:54.504Z,59.60
2017-10-19T01:11:23.473Z,70.67
2017-10-19T01:13:52.886Z,72.00
2017-10-19T01:16:22.596Z,45.50
2017-10-19T01:18:51.674Z,53.87
2017-10-19T01:21:20.624Z,64.77
2017-10-19T01:23:49.604Z,52.63
2017-10-19T01:26:18.599Z,84.83
2017-10-19T01:28:47.564Z,55.60
2017-10-19T01:31:16.632Z,60.70
2017-10-19T01:33:45.600Z,58.27
2017-10-19T01:36:14.593Z,56.20
2017-10-19T01:38:43.548Z,56.40
2017-10-19T01:41:12.535Z,51.97
2017-10-19T01:43:41.504Z,57.67
2017-10-19T01:46:10.483Z,63.63
2017-10-19T01:48:40.238Z,72.17
2017-10-19T01:51:09.210Z,50.87
2017-10-19T01:53:38.147Z,53.77
2017-10-19T01:56:07.124Z,62.40
2017-10-19T01:58:36.079Z,53.63
2017-10-19T02:01:05.448Z,56.47
2017-10-19T02:03:34.786Z,56.63
2017-10-19T02:06:03.750Z,61.00
2017-10-19T02:08:33.449Z,49.43
2017-10-19T02:11:03.177Z,45.23
2017-10-19T02:13:32.530Z,59.10
2017-10-19T02:16:01.560Z,70.17
2017-10-19T02:18:31.257Z,47.10
2017-10-19T02:21:00.992Z,55.67
2017-10-19T02:23:30.354Z,63.30
2017-10-19T02:25:59.319Z,71.57
2017-10-19T02:28:28.285Z,58.70
2017-10-19T02:30:57.215Z,79.27
2017-10-19T02:33:26.178Z,51.87
2017-10-19T02:38:31.908Z,42.60
2017-10-19T02:41:01.655Z,57.03
2017-10-19T02:43:30.605Z,50.43
2017-10-19T02:46:00.337Z,49.00
2017-10-19T02:48:29.303Z,57.03
2017-10-19T02:50:59.021Z,51.70
2017-10-19T02:53:28.746Z,44.20
2017-10-19T02:55:57.680Z,61.67
2017-10-19T02:58:26.643Z,42.60
2017-10-19T03:00:56.005Z,52.20
2017-10-19T03:03:25.368Z,64.50
2017-10-19T03:05:54.718Z,51.80
2017-10-19T03:08:23.676Z,48.40
2017-10-19T03:10:52.618Z,47.57
2017-10-19T03:13:21.552Z,53.30
2017-10-19T03:15:50.493Z,46.63
2017-10-19T03:18:19.477Z,53.17
2017-10-19T03:20:48.437Z,62.23
2017-10-19T03:23:18.506Z,43.77
2017-10-19T03:25:47.457Z,65.07
2017-10-19T03:28:17.222Z,63.75
2017-10-19T03:30:46.185Z,56.17
2017-10-19T03:33:15.126Z,66.37
2017-10-19T03:35:44.507Z,35.80
2017-10-19T03:38:13.444Z,45.67
2017-10-19T03:40:42.411Z,57.13
2017-10-19T03:43:11.356Z,40.50
2017-10-19T03:45:40.333Z,38.63
2017-10-19T03:48:09.296Z,34.93
2017-10-19T03:50:38.296Z,58.80
2017-10-19T03:53:18.892Z,37.63
2017-10-19T03:55:47.860Z,29.00
2017-10-19T03:58:17.233Z,35.27
2017-10-19T04:00:46.203Z,32.73
2017-10-19T04:03:15.169Z,35.10
2017-10-19T04:05:44.562Z,28.57
2017-10-19T04:08:13.565Z,34.40
2017-10-19T04:10:42.699Z,31.40
2017-10-19T04:13:12.461Z,30.40
2017-10-19T04:15:41.430Z,27.00
2017-10-19T04:18:11.144Z,27.97
2017-10-19T04:20:40.117Z,28.40
2017-10-19T04:23:09.474Z,35.00
2017-10-19T04:25:38.449Z,26.97
2017-10-19T04:28:07.424Z,27.50
2017-10-19T04:30:36.383Z,35.83
2017-10-19T04:33:05.347Z,41.60
2017-10-19T04:35:34.303Z,28.83
2017-10-19T04:38:03.284Z,27.27
2017-10-19T04:40:32.644Z,31.80
2017-10-19T04:43:01.615Z,31.17
2017-10-19T04:45:30.730Z,30.43
2017-10-19T04:48:00.109Z,37.10
2017-10-19T04:50:29.061Z,36.63
2017-10-19T04:52:58.475Z,33.70
2017-10-19T04:55:27.429Z,29.37
2017-10-19T04:57:57.161Z,31.37
2017-10-19T05:00:26.910Z,31.33
2017-10-19T05:02:55.870Z,26.97
2017-10-19T05:05:25.610Z,34.00
2017-10-19T05:07:55.323Z,26.77
2017-10-19T05:10:24.782Z,33.20
2017-10-19T05:12:53.705Z,24.27
2017-10-19T05:15:23.060Z,27.40
2017-10-19T05:17:52.010Z,27.63
2017-10-19T05:20:20.988Z,27.27
2017-10-19T05:22:50.328Z,27.13
2017-10-19T05:25:19.281Z,26.37
2017-10-19T05:27:49.840Z,26.03
2017-10-19T05:30:18.814Z,29.57
2017-10-19T05:32:48.532Z,24.07
2017-10-19T05:35:17.488Z,27.83
2017-10-19T05:37:46.454Z,25.00
2017-10-19T05:40:15.412Z,23.13
2017-10-19T05:42:44.389Z,26.30
2017-10-19T05:45:13.352Z,23.20
2017-10-19T05:47:42.320Z,24.77
2017-10-19T05:50:11.290Z,24.17
2017-10-19T05:52:40.225Z,27.77
2017-10-19T05:55:09.576Z,25.10
2017-10-19T05:57:38.552Z,25.00
2017-10-19T06:00:07.558Z,31.23
2017-10-19T06:02:36.512Z,29.83
2017-10-19T06:05:05.497Z,31.30
2017-10-19T06:07:34.445Z,25.80
2017-10-19T06:10:04.176Z,25.20
2017-10-19T06:12:34.580Z,33.90
2017-10-19T06:15:03.598Z,30.90
2017-10-19T06:17:34.131Z,28.00
2017-10-19T06:20:03.937Z,34.50
2017-10-19T06:22:32.938Z,27.63
2017-10-19T06:25:02.378Z,28.60
2017-10-19T06:27:32.320Z,29.13
2017-10-19T06:30:01.995Z,28.07
2017-10-19T06:32:31.976Z,31.53
2017-10-19T06:35:01.432Z,25.80
2017-10-19T06:37:31.703Z,28.00
2017-10-19T06:40:01.524Z,29.23
2017-10-19T06:42:30.665Z,38.07
2017-10-19T06:44:59.900Z,37.47
2017-10-19T06:47:29.374Z,33.73
2017-10-19T06:49:59.590Z,32.10
2017-10-19T06:52:28.714Z,31.40
2017-10-19T06:54:57.725Z,31.63
2017-10-19T06:57:26.690Z,35.63
2017-10-19T06:59:56.756Z,32.10
2017-10-19T07:02:25.728Z,35.37
2017-10-19T07:04:56.963Z,35.20
2017-10-19T07:07:27.375Z,28.43
2017-10-19T07:09:56.846Z,29.87
2017-10-19T07:12:25.892Z,37.17
2017-10-19T07:14:55.818Z,32.80
2017-10-19T07:17:24.967Z,38.87
2017-10-19T07:19:56.749Z,35.17
2017-10-19T07:22:25.707Z,35.47
2017-10-19T07:24:54.711Z,34.83
2017-10-19T07:27:24.665Z,34.63
2017-10-19T07:29:55.450Z,32.60
2017-10-19T07:32:26.431Z,31.90
2017-10-19T07:34:55.519Z,32.80
2017-10-19T07:37:25.361Z,34.67
2017-10-19T07:39:54.484Z,32.77
2017-10-19T07:42:24.153Z,28.30
2017-10-19T07:44:53.098Z,28.43
2017-10-19T07:47:22.064Z,29.30
2017-10-19T07:49:51.046Z,29.13
2017-10-19T07:52:20.019Z,27.83
2017-10-19T07:54:49.719Z,28.13
2017-10-19T07:57:18.713Z,25.20
2017-10-19T07:59:47.662Z,29.40
2017-10-19T08:02:17.431Z,28.30
2017-10-19T08:04:46.389Z,27.17
2017-10-19T08:07:16.238Z,25.83
2017-10-19T08:09:45.226Z,32.43
2017-10-19T08:12:14.198Z,31.23
2017-10-19T08:14:43.140Z,29.20
2017-10-19T08:17:12.113Z,27.93
2017-10-19T08:19:41.069Z,31.87
2017-10-19T08:22:10.038Z,29.17
2017-10-19T08:24:39.738Z,25.90
2017-10-19T08:27:09.730Z,25.67
2017-10-19T08:29:38.677Z,33.70
2017-10-19T08:32:07.748Z,26.63
2017-10-19T08:34:36.669Z,28.00
2017-10-19T08:37:05.646Z,30.77
2017-10-19T08:39:34.981Z,25.43
2017-10-19T08:42:04.720Z,23.93
2017-10-19T08:44:34.424Z,27.10
2017-10-19T08:47:03.463Z,35.57
2017-10-19T08:49:32.418Z,29.70
2017-10-19T08:52:02.778Z,29.63
2017-10-19T08:54:31.723Z,26.70
2017-10-19T08:57:00.683Z,26.37
2017-10-19T08:59:29.659Z,27.33
2017-10-19T09:01:58.599Z,24.83
2017-10-19T09:04:27.557Z,24.87
2017-10-19T09:06:56.508Z,31.53
2017-10-19T09:09:25.464Z,31.20
2017-10-19T09:11:54.457Z,20.70
2017-10-19T09:14:23.372Z,22.20
2017-10-19T09:16:53.103Z,22.37
2017-10-19T09:19:22.056Z,26.40
2017-10-19T09:21:51.032Z,21.70
2017-10-19T09:24:19.984Z,22.63
2017-10-19T09:26:48.921Z,19.67
2017-10-19T09:29:17.890Z,22.77
2017-10-19T09:31:47.624Z,21.03
2017-10-19T09:34:16.637Z,21.33
2017-10-19T09:36:46.010Z,20.87
2017-10-19T09:39:14.939Z,24.70
2017-10-19T09:41:43.913Z,20.73
2017-10-19T09:44:12.879Z,21.77
2017-10-19T09:46:42.255Z,21.60
2017-10-19T09:49:11.216Z,20.30
2017-10-19T09:51:40.299Z,22.70
2017-10-19T09:54:09.238Z,23.13
2017-10-19T09:56:38.282Z,21.70
2017-10-19T09:59:07.282Z,20.37
2017-10-19T10:01:37.005Z,20.77
2017-10-19T10:04:05.995Z,25.00
2017-10-19T10:06:35.682Z,19.07
2017-10-19T10:09:05.457Z,20.93
2017-10-19T10:11:34.432Z,19.83
2017-10-19T10:14:03.409Z,18.93
2017-10-19T10:16:32.360Z,19.57
2017-10-19T10:19:01.341Z,25.23
2017-10-19T10:21:30.288Z,17.67
2017-10-19T10:23:59.262Z,19.97
2017-10-19T10:26:28.207Z,18.80
2017-10-19T10:28:57.163Z,18.80
2017-10-19T10:31:26.141Z,20.90
2017-10-19T10:33:55.106Z,18.90
2017-10-19T10:36:24.850Z,17.73
2017-10-19T10:38:53.792Z,19.57
2017-10-19T10:41:22.777Z,18.00
2017-10-19T10:43:51.735Z,18.10
2017-10-19T10:46:20.702Z,19.17
2017-10-19T10:48:49.873Z,19.10
2017-10-19T10:51:19.585Z,17.53
2017-10-19T10:53:49.312Z,18.00
2017-10-19T10:56:18.272Z,19.23
2017-10-19T10:58:47.223Z,20.37
2017-10-19T11:01:16.938Z,16.87
2017-10-19T11:03:46.687Z,19.47
2017-10-19T11:06:15.644Z,18.17
2017-10-19T11:08:44.599Z,21.73
2017-10-19T11:11:13.561Z,17.50
2017-10-19T11:13:42.518Z,22.53
2017-10-19T11:16:11.485Z,18.60
2017-10-19T11:18:40.451Z,18.73
2017-10-19T11:21:10.150Z,19.10
2017-10-19T11:23:39.878Z,17.70
2017-10-19T11:26:08.833Z,19.63
2017-10-19T11:28:37.801Z,19.70
2017-10-19T11:31:06.758Z,19.83
2017-10-19T11:33:35.729Z,19.27
2017-10-19T11:36:05.482Z,19.47
2017-10-19T11:38:35.574Z,19.53
2017-10-19T11:41:05.282Z,20.43
2017-10-19T11:43:34.249Z,19.93
2017-10-19T11:46:03.949Z,17.13
2017-10-19T11:48:32.930Z,19.20
2017-10-19T11:51:01.917Z,17.60
2017-10-19T11:53:30.866Z,18.37
2017-10-19T11:55:59.845Z,17.73
2017-10-19T11:58:28.824Z,17.53
2017-10-19T12:00:58.545Z,17.40
2017-10-19T12:03:27.513Z,18.70
2017-10-19T12:05:57.219Z,20.60
2017-10-19T12:08:26.199Z,16.97
2017-10-19T12:10:55.142Z,18.33
2017-10-19T12:13:24.137Z,17.50
2017-10-19T12:15:53.077Z,17.27
2017-10-19T12:18:22.043Z,20.73
2017-10-19T12:20:51.082Z,16.17
2017-10-19T12:23:20.096Z,16.73
2017-10-19T12:25:49.026Z,18.87
2017-10-19T12:28:17.984Z,16.77
2017-10-19T12:30:46.950Z,20.60
2017-10-19T12:33:16.760Z,17.23
2017-10-19T12:35:45.704Z,17.33
2017-10-19T12:38:14.681Z,18.35
2017-10-19T12:40:43.616Z,18.37
2017-10-19T12:43:12.580Z,17.50
2017-10-19T12:45:42.413Z,18.30
2017-10-19T12:48:11.360Z,16.37
2017-10-19T12:50:40.321Z,18.30
2017-10-19T12:53:10.043Z,19.20
2017-10-19T12:55:38.974Z,19.37
2017-10-19T12:58:07.931Z,18.97
2017-10-19T13:00:39.058Z,24.90
2017-10-19T13:03:08.792Z,20.17
2017-10-19T13:05:37.885Z,22.53
2017-10-19T13:08:06.851Z,18.53
2017-10-19T13:10:36.586Z,18.10
2017-10-19T13:13:05.534Z,18.30
2017-10-19T13:15:35.272Z,18.47
2017-10-19T13:18:04.228Z,20.80
2017-10-19T13:20:33.217Z,20.70
2017-10-19T13:23:02.276Z,17.40
2017-10-19T13:25:31.245Z,19.33
2017-10-19T13:28:00.218Z,19.23
2017-10-19T13:30:29.176Z,17.50
2017-10-19T13:32:58.182Z,19.00
2017-10-19T13:35:27.138Z,18.53
2017-10-19T13:37:56.099Z,17.33
2017-10-19T13:40:25.087Z,17.67
2017-10-19T13:42:54.794Z,17.53
2017-10-19T13:45:24.531Z,17.20
2017-10-19T13:47:53.475Z,17.47
2017-10-19T13:50:23.191Z,17.17
2017-10-19T13:52:52.961Z,18.37
2017-10-19T13:55:21.935Z,18.07
2017-10-19T13:57:50.891Z,16.90
2017-10-19T14:00:20.653Z,17.53
2017-10-19T14:02:49.593Z,17.23
2017-10-19T14:05:19.311Z,15.40
2017-10-19T14:07:48.251Z,17.80
2017-10-19T14:10:17.249Z,17.83
2017-10-19T14:12:46.186Z,17.27
2017-10-19T14:15:15.163Z,17.97
2017-10-19T14:17:44.910Z,16.73
2017-10-19T14:20:13.864Z,18.77
2017-10-19T14:22:43.677Z,17.43
2017-10-19T14:25:12.753Z,16.30
2017-10-19T14:27:41.708Z,18.30
2017-10-19T14:30:10.670Z,17.73
2017-10-19T14:32:40.462Z,14.73
2017-10-19T14:35:09.405Z,16.43
2017-10-19T14:37:38.336Z,17.00
2017-10-19T14:40:08.266Z,16.60
2017-10-19T14:42:37.292Z,16.83
2017-10-19T14:45:06.342Z,17.60
2017-10-19T14:47:35.278Z,16.40
2017-10-19T14:50:04.252Z,16.10
2017-10-19T14:52:33.215Z,16.20
2017-10-19T14:55:02.958Z,18.20
2017-10-19T14:57:31.900Z,16.73
2017-10-19T15:00:00.855Z,16.93
2017-10-19T15:02:30.228Z,16.93
2017-10-19T15:04:59.609Z,17.37
2017-10-19T15:07:28.555Z,18.57
2017-10-19T15:09:59.493Z,19.07
2017-10-19T15:12:29.336Z,20.37
2017-10-19T15:14:58.698Z,20.77
2017-10-19T15:17:29.058Z,18.67
2017-10-19T15:19:58.194Z,21.23
2017-10-19T15:22:27.622Z,21.23
2017-10-19T15:24:56.692Z,19.93
2017-10-19T15:27:25.738Z,19.13
2017-10-19T15:29:54.802Z,26.33
2017-10-19T15:32:23.861Z,20.30
2017-10-19T15:34:54.364Z,20.00
2017-10-19T15:37:24.953Z,21.37
2017-10-19T15:39:53.961Z,23.10
2017-10-19T15:42:24.639Z,20.67
2017-10-19T15:44:53.701Z,21.70
2017-10-19T15:47:23.604Z,24.37
2017-10-19T15:50:00.502Z,21.30
2017-10-19T15:52:30.271Z,23.37
2017-10-19T15:54:59.354Z,22.03
2017-10-19T15:57:29.698Z,23.70
2017-10-19T15:59:59.329Z,23.23
2017-10-19T16:02:29.104Z,27.47
2017-10-19T16:04:58.919Z,24.23
2017-10-19T16:07:29.903Z,22.80
2017-10-19T16:09:59.592Z,23.60
2017-10-19T16:12:31.237Z,21.97
2017-10-19T16:15:01.692Z,26.03
2017-10-19T16:17:31.082Z,26.33
2017-10-19T16:20:00.031Z,23.13
2017-10-19T16:22:29.442Z,25.40
2017-10-19T16:24:58.863Z,26.43
2017-10-19T16:27:28.657Z,28.17
2017-10-19T16:29:59.404Z,25.80
2017-10-19T16:32:29.159Z,28.97
2017-10-19T16:34:58.831Z,27.53
2017-10-19T16:37:27.813Z,29.07
2017-10-19T16:39:56.841Z,31.47
2017-10-19T16:42:26.584Z,28.97
2017-10-19T16:44:55.623Z,30.17
2017-10-19T16:47:25.377Z,31.03
2017-10-19T16:49:54.350Z,29.03
2017-10-19T16:52:24.125Z,30.00
2017-10-19T16:54:53.058Z,32.13
2017-10-19T16:57:22.793Z,35.30
2017-10-19T16:59:52.508Z,28.83
2017-10-19T17:02:21.471Z,36.90
2017-10-19T17:04:50.414Z,30.47
2017-10-19T17:07:19.804Z,31.10
2017-10-19T17:09:49.547Z,32.43
2017-10-19T17:12:18.934Z,30.03
2017-10-19T17:14:48.662Z,32.67
2017-10-19T17:17:18.059Z,34.07
2017-10-19T17:19:47.012Z,31.23
2017-10-19T17:22:15.976Z,29.30
2017-10-19T17:24:44.944Z,32.00
2017-10-19T17:27:14.316Z,34.07
2017-10-19T17:29:43.260Z,36.37
2017-10-19T17:32:12.224Z,44.50
2017-10-19T17:34:41.958Z,44.37
2017-10-19T17:37:10.921Z,46.07
2017-10-19T17:39:39.848Z,46.27
2017-10-19T17:42:08.817Z,52.60
2017-10-19T17:44:38.547Z,48.67
2017-10-19T17:47:08.584Z,40.53
2017-10-19T17:49:37.548Z,30.93
2017-10-19T17:52:07.301Z,34.80
2017-10-19T17:54:36.280Z,30.97
2017-10-19T17:57:05.237Z,33.70
2017-10-19T17:59:34.586Z,33.80
2017-10-19T18:02:03.536Z,31.13
2017-10-19T18:04:32.538Z,31.60
2017-10-19T18:07:01.523Z,33.63
2017-10-19T18:09:30.509Z,34.87
2017-10-19T18:11:59.468Z,31.83
2017-10-19T18:14:28.450Z,37.33
2017-10-19T18:16:57.794Z,35.63
2017-10-19T18:19:27.553Z,33.80
2017-10-19T18:21:57.292Z,30.70
2017-10-19T18:24:27.063Z,32.10
2017-10-19T18:26:56.817Z,32.63
2017-10-19T18:29:26.740Z,31.70
2017-10-19T18:31:56.552Z,35.47
2017-10-19T18:34:26.290Z,36.50
2017-10-19T18:36:55.327Z,29.33
2017-10-19T18:39:24.715Z,33.37
2017-10-19T18:41:53.704Z,32.40
2017-10-19T18:44:22.701Z,33.90
2017-10-19T18:46:51.701Z,34.10
2017-10-19T18:49:21.222Z,37.47
2017-10-19T18:51:50.606Z,35.47
2017-10-19T18:54:19.645Z,33.50
2017-10-19T18:56:48.609Z,38.00
2017-10-19T18:59:17.637Z,40.37
2017-10-19T19:01:46.643Z,33.70
2017-10-19T19:04:15.635Z,33.80
2017-10-19T19:06:44.650Z,37.40
2017-10-19T19:09:13.651Z,31.77
2017-10-19T19:11:42.604Z,39.00
2017-10-19T19:14:11.620Z,37.93
2017-10-19T19:16:40.570Z,41.10
2017-10-19T19:19:09.586Z,37.70
2017-10-19T19:21:38.572Z,41.13
2017-10-19T19:24:07.576Z,45.60
2017-10-19T19:26:36.538Z,39.60
2017-10-19T19:29:06.296Z,32.13
2017-10-19T19:31:35.673Z,33.47
2017-10-19T19:34:04.650Z,36.53
2017-10-19T19:36:33.821Z,31.07
2017-10-19T19:39:03.539Z,34.93
2017-10-19T19:41:34.309Z,37.03
2017-10-19T19:44:04.058Z,33.00
2017-10-19T19:46:33.490Z,42.87
2017-10-19T19:49:02.655Z,31.03
2017-10-19T19:51:31.645Z,29.80
2017-10-19T19:54:00.703Z,35.37
2017-10-19T19:56:29.675Z,38.37
2017-10-19T19:58:58.757Z,35.13
2017-10-19T20:01:27.740Z,28.53
2017-10-19T20:03:57.567Z,33.57
2017-10-19T20:06:26.527Z,41.30
2017-10-19T20:08:56.585Z,42.43
2017-10-19T20:11:26.073Z,37.37
2017-10-19T20:13:55.100Z,32.30
2017-10-19T20:16:24.874Z,29.87
2017-10-19T20:18:56.641Z,29.03
2017-10-19T20:21:25.977Z,26.70
2017-10-19T20:23:54.949Z,28.90
2017-10-19T20:26:23.922Z,30.30
2017-10-19T20:28:52.877Z,26.67
2017-10-19T20:31:23.419Z,27.80
2017-10-19T20:33:53.227Z,30.20
2017-10-19T20:36:22.157Z,35.00
2017-10-19T20:38:51.155Z,29.43
2017-10-19T20:41:20.547Z,28.53
2017-10-19T20:43:49.903Z,28.53
2017-10-19T20:46:18.861Z,26.90
2017-10-19T20:48:48.600Z,25.77
2017-10-19T20:51:19.794Z,25.13
2017-10-19T20:53:49.553Z,26.47
2017-10-19T20:56:19.271Z,28.07
2017-10-19T20:58:48.684Z,24.80
2017-10-19T21:01:18.403Z,24.73
2017-10-19T21:03:47.378Z,29.63
2017-10-19T21:06:16.706Z,24.77
2017-10-19T21:08:45.682Z,35.87
2017-10-19T21:11:14.642Z,32.63
2017-10-19T21:13:43.610Z,28.63
2017-10-19T21:16:12.552Z,31.00
2017-10-19T21:18:41.567Z,24.63
2017-10-19T21:21:11.295Z,30.67
2017-10-19T21:23:40.708Z,29.97
2017-10-19T21:26:09.638Z,26.20
2017-10-19T21:28:39.361Z,28.53
2017-10-19T21:31:08.312Z,30.43
2017-10-19T21:33:37.833Z,28.10
2017-10-19T21:36:07.567Z,22.03
2017-10-19T21:38:36.524Z,27.10
2017-10-19T21:41:05.490Z,26.33
2017-10-19T21:43:34.735Z,23.93
2017-10-19T21:46:04.470Z,28.43
2017-10-19T21:48:33.426Z,22.73
2017-10-19T21:51:03.130Z,22.23
2017-10-19T21:53:32.108Z,23.13
2017-10-19T21:56:01.441Z,27.73
2017-10-19T21:58:30.414Z,25.43
2017-10-19T22:00:59.349Z,25.70
2017-10-19T22:03:28.370Z,25.97
2017-10-19T22:05:57.304Z,28.37
2017-10-19T22:08:26.686Z,24.40
2017-10-19T22:10:55.628Z,24.83
2017-10-19T22:13:24.588Z,24.33
2017-10-19T22:15:53.546Z,26.10
2017-10-19T22:18:22.499Z,25.67
2017-10-19T22:20:51.447Z,25.07
2017-10-19T22:23:20.436Z,24.57
2017-10-19T22:25:49.379Z,26.50
2017-10-19T22:28:19.451Z,24.43
2017-10-19T22:30:49.164Z,23.90
2017-10-19T22:33:18.496Z,22.10
2017-10-19T22:35:47.466Z,27.23
2017-10-19T22:38:16.495Z,24.60
2017-10-19T22:40:45.453Z,25.77
2017-10-19T22:43:14.550Z,23.23
2017-10-19T22:45:44.254Z,24.40
2017-10-19T22:48:13.580Z,24.17
2017-10-19T22:50:42.633Z,23.43
2017-10-19T22:53:12.325Z,22.57
2017-10-19T22:55:41.289Z,25.27
2017-10-19T22:58:10.232Z,24.33
2017-10-19T23:00:39.957Z,25.27
2017-10-19T23:03:09.666Z,22.10
2017-10-19T23:05:38.675Z,28.00
2017-10-19T23:08:08.424Z,26.63
2017-10-19T23:10:37.397Z,22.53
2017-10-19T23:13:06.359Z,22.83
2017-10-19T23:15:35.268Z,21.87
2017-10-19T23:18:04.628Z,26.00
2017-10-19T23:20:33.601Z,20.53
2017-10-19T23:23:02.529Z,22.83
2017-10-19T23:25:31.500Z,24.80
2017-10-19T23:28:00.441Z,23.63
2017-10-19T23:30:29.407Z,23.73
2017-10-19T23:32:58.363Z,25.83
2017-10-19T23:35:28.125Z,22.97
2017-10-19T23:37:57.476Z,27.90
2017-10-19T23:40:26.853Z,26.83
2017-10-19T23:42:55.797Z,24.60
2017-10-19T23:45:25.520Z,24.33
2017-10-19T23:47:55.230Z,24.23
2017-10-19T23:50:24.782Z,26.43
2017-10-19T23:52:54.118Z,25.40
2017-10-19T23:55:23.473Z,25.80
2017-10-19T23:57:52.473Z,27.57
